Flight Number: EUR2439 Duration: 6:00
Departure: Dubai Int'l (OMDB) at 08:00 Distance: 2463 Nm
Arrival: Munich Int'l (EDDM) at 14:00 Equipment: B777

Weather Information
Dubai International Airport, United Arab Emirates (OMDB) 25-15N 055-20E 5M Jan 22, 2018 - 02:00 AM EST / 2018.01.22 0700 UTC
Wind: from the S (170 degrees) at 5 MPH (4 KT) (direction variable):0
Visibility: 3 mile(s):0 Weather: widespread dust Temperature: 69 F (21 C) Dew Point: 50 F (10 C) Relative Humidity: 49% Pressure (altimeter): 30.09 in. Hg (1019 hPa)
ob: OMDB 220700Z 17004KT 130V200 5000 DU NSC 21/10 Q1019 NOSIG cycle: 7
Sunrise: 03:07 Sunset: 13:52 (UTC)

Munchen, Germany (EDDM) 48-21N 011-47E Jan 22, 2018 - 02:50 AM EST / 2018.01.22 0750 UTC
Wind: from the E (100 degrees) at 7 MPH (6 KT):0
Visibility: 1 mile(s):0
Sky conditions: overcast Weather: light snow Temperature: 30 F (-1 C)
Windchill: 23 F (-5 C):1 Dew Point: 28 F (-2 C) Relative Humidity: 92% Pressure (altimeter): 29.85 in. Hg (1011 hPa)
ob: EDDM 220750Z 10006KT 3200 -SN FEW006 OVC024 M01/M02 Q1011 R08R/290095 R08L/////// NOSIG cycle: 8
Sunrise: 06:56 Sunset: 15:52 (UTC)

TAF:2018/01/22 06:27 TAF EDDM 220500Z 2206/2312 10005KT 3000 -SN OVC007 TEMPO 2206/2207 1200 SN VV004 BECMG 2209/2211 24007KT 6000 TEMPO 2209/2211 -FZRA BECMG 2211/2214 BKN015 BECMG 2218/2221 BKN012 TEMPO 2220/2308 3000 -DZ OVC007 BECMG 2310/2312 BKN015

Previous Pireps for this route
Date Aircraft Flight time Fuel used Landing rate On time
2012-08-14A3405.35703870Yes
2012-11-02A34006.44112308-462No
2013-01-23A3405.3067954.70Yes
2013-01-29A3405.3063527.80Yes
2015-07-02B7776.231057580Charter
2016-02-29B77706.261211060Yes
2016-03-13B7776,30111918-312No
2016-10-07B77706.08100062-207Yes
2016-10-16B77706.07120485-347No
2016-11-01B77706.09130278-469Yes
(pireps marked green are flown by you)

Route map